createdAt,value
2023-05-01T00:02:21.656Z,67.71
2023-05-01T00:08:41.587Z,68.46
2023-05-01T00:15:04.589Z,68.4
2023-05-01T00:21:24.591Z,68.57
2023-05-01T00:27:47.592Z,68.7
2023-05-01T00:34:07.607Z,68.32
2023-05-01T00:40:30.582Z,69.08
2023-05-01T00:46:50.575Z,70.01
2023-05-01T00:53:13.605Z,70.5
2023-05-01T00:59:33.567Z,70.52
2023-05-01T01:05:56.631Z,71.56
2023-05-01T01:12:16.589Z,72.01
2023-05-01T01:18:39.585Z,72.32
2023-05-01T01:24:59.563Z,72.24
2023-05-01T01:31:22.689Z,72.11
2023-05-01T01:37:42.567Z,72.44
2023-05-01T01:44:05.608Z,72.91
2023-05-01T01:50:25.588Z,73.07
2023-05-01T01:56:48.652Z,72.74
2023-05-01T02:03:08.602Z,72.03
2023-05-01T02:09:31.599Z,72.26
2023-05-01T02:15:51.573Z,72.01
2023-05-01T02:22:14.608Z,72.23
2023-05-01T02:28:34.586Z,72.82
2023-05-01T02:34:57.597Z,73.56
2023-05-01T02:41:17.588Z,73.82
2023-05-01T02:47:40.648Z,73.81
2023-05-01T02:54:00.584Z,73.81
2023-05-01T03:00:23.611Z,73.7
2023-05-01T03:06:43.646Z,73.83
2023-05-01T03:13:06.579Z,73.86
2023-05-01T03:19:26.587Z,73.83
2023-05-01T03:25:49.641Z,72.92
2023-05-01T03:32:09.583Z,72.64
2023-05-01T03:50:00.587Z,71.17
2023-05-01T03:56:20.556Z,71
2023-05-01T04:02:43.688Z,70.75
2023-05-01T04:09:03.635Z,70.57
2023-05-01T04:15:26.601Z,70.32
2023-05-01T04:21:46.585Z,70.25
2023-05-01T04:28:09.803Z,69.99
2023-05-01T04:34:29.592Z,70.21
2023-05-01T04:40:52.609Z,69.9
2023-05-01T04:47:12.744Z,70.35
2023-05-01T04:53:35.645Z,69.97
2023-05-01T04:59:55.757Z,69.65
2023-05-01T05:06:18.697Z,69.74
2023-05-01T05:12:38.568Z,69.22
2023-05-01T05:19:01.576Z,69.39
2023-05-01T05:25:21.634Z,68.4
2023-05-01T05:31:44.622Z,68.63
2023-05-01T05:38:04.582Z,68
2023-05-01T05:44:27.625Z,67.7
2023-05-01T05:50:47.564Z,67.16
2023-05-01T05:57:10.622Z,67.24
2023-05-01T06:03:30.680Z,67.25
2023-05-01T06:09:53.766Z,66.92
2023-05-01T06:16:13.671Z,66.41
2023-05-01T06:22:36.705Z,65.58
2023-05-01T06:28:56.595Z,65.48
2023-05-01T06:35:19.614Z,64.63
2023-05-01T06:41:39.594Z,64.92
2023-05-01T06:48:02.623Z,64.55
2023-05-01T06:54:22.585Z,64.17
2023-05-01T07:00:45.651Z,64.73
2023-05-01T07:07:05.572Z,64.44
2023-05-01T07:13:28.560Z,63.75
2023-05-01T07:19:48.604Z,62.94
2023-05-01T07:26:11.613Z,62.56
2023-05-01T07:32:31.612Z,63.58
2023-05-01T07:38:54.595Z,62.52
2023-05-01T07:45:14.590Z,61.67
2023-05-01T07:51:37.584Z,61.07
2023-05-01T07:57:57.599Z,62.12
2023-05-01T08:04:20.632Z,61.25
2023-05-01T08:10:40.586Z,61.26
2023-05-01T08:17:03.599Z,61.02
2023-05-01T08:23:23.606Z,59.56
2023-05-01T08:29:46.561Z,58.5
2023-05-01T08:36:06.622Z,57.7
2023-05-01T08:42:31.704Z,57.47
2023-05-01T08:48:49.580Z,57.2
2023-05-01T08:55:12.608Z,55.99
2023-05-01T09:01:32.659Z,58.7
2023-05-01T09:18:47.494Z,55.38
2023-05-01T09:25:07.563Z,55.51
2023-05-01T09:31:30.666Z,55.69
2023-05-01T09:37:50.616Z,51.66
2023-05-01T09:44:13.562Z,51.1
2023-05-01T09:50:33.577Z,52.79
2023-05-01T09:56:56.605Z,52.17
2023-05-01T10:03:16.665Z,51.08
2023-05-01T10:09:39.583Z,50.69
2023-05-01T10:15:59.619Z,49.11
2023-05-01T10:22:22.594Z,50.44
2023-05-01T10:28:42.582Z,48.91
2023-05-01T10:35:05.609Z,49.35
2023-05-01T10:41:25.588Z,46.69
2023-05-01T10:47:48.624Z,45.44
2023-05-01T10:54:08.608Z,44.3
2023-05-01T11:00:31.581Z,44.22
2023-05-01T11:06:51.596Z,42.96
2023-05-01T11:13:14.722Z,42.74
2023-05-01T11:19:34.572Z,43.76
2023-05-01T11:25:57.594Z,43.86
2023-05-01T11:32:17.698Z,42.27
2023-05-01T11:38:40.571Z,43.07
2023-05-01T11:45:00.586Z,40.12
2023-05-01T11:51:23.593Z,40.78
2023-05-01T11:57:43.584Z,42.34
2023-05-01T12:04:06.715Z,43.22
2023-05-01T12:10:26.625Z,41.94
2023-05-01T12:16:49.677Z,44.57
2023-05-01T12:23:09.571Z,43.88
2023-05-01T12:29:32.612Z,40.56
2023-05-01T12:35:52.569Z,39.2
2023-05-01T12:42:15.580Z,39.03
2023-05-01T12:48:35.678Z,37.66
2023-05-01T12:54:58.762Z,37.18
2023-05-01T13:01:18.628Z,36.59
2023-05-01T13:07:41.680Z,36.66
2023-05-01T13:14:01.563Z,36.52
2023-05-01T13:20:24.595Z,35.66
2023-05-01T13:26:44.593Z,37.76
2023-05-01T13:33:07.666Z,37.65
2023-05-01T13:39:27.557Z,38.3
2023-05-01T13:45:50.636Z,39.1
2023-05-01T13:52:10.563Z,37.27
2023-05-01T13:58:33.565Z,38.07
2023-05-01T14:04:53.589Z,36.67
2023-05-01T14:11:16.562Z,35.93
2023-05-01T14:17:36.598Z,36.49
2023-05-01T14:23:59.588Z,35.04
2023-05-01T14:30:19.553Z,40.89
2023-05-01T14:36:42.587Z,42.98
2023-05-01T14:43:02.635Z,43.62
2023-05-01T14:49:25.579Z,46.6
2023-05-01T15:05:33.580Z,51.74
2023-05-01T15:11:53.566Z,54.55
2023-05-01T15:18:16.648Z,56.88
2023-05-01T15:24:36.599Z,60.15
2023-05-01T15:30:59.654Z,62.2
2023-05-01T15:37:19.608Z,62.93
2023-05-01T15:43:42.607Z,63.45
2023-05-01T15:50:02.702Z,63.26
2023-05-01T15:56:25.578Z,64.05
2023-05-01T16:02:45.687Z,64.82
2023-05-01T16:09:08.637Z,64.81
2023-05-01T16:15:28.595Z,65.39
2023-05-01T16:21:51.610Z,67.74
2023-05-01T16:28:11.606Z,68.55
2023-05-01T16:34:34.708Z,69.24
2023-05-01T16:40:54.787Z,68.83
2023-05-01T16:47:17.798Z,70.49
2023-05-01T16:53:37.590Z,73.32
2023-05-01T17:00:00.890Z,74.75
2023-05-01T17:06:20.596Z,75.97
2023-05-01T17:12:43.687Z,76.97
2023-05-01T17:19:03.630Z,75.9
2023-05-01T17:25:26.590Z,76
2023-05-01T17:31:46.670Z,77.07
2023-05-01T17:38:09.600Z,77.17
2023-05-01T17:44:29.587Z,76.46
2023-05-01T17:50:52.564Z,74.24
2023-05-01T17:57:12.592Z,73.01
2023-05-01T18:03:35.636Z,72.97
2023-05-01T18:09:55.566Z,73.04
2023-05-01T18:16:18.692Z,73.37
2023-05-01T18:22:38.591Z,73.39
2023-05-01T18:29:01.610Z,73.81
2023-05-01T18:35:21.597Z,74.45
2023-05-01T18:41:44.589Z,74.58
2023-05-01T18:48:04.622Z,75.33
2023-05-01T18:54:27.601Z,75.21
2023-05-01T19:00:47.595Z,75.49
2023-05-01T19:07:10.574Z,75.94
2023-05-01T19:13:30.603Z,76.05
2023-05-01T19:19:53.585Z,75.44
2023-05-01T19:26:13.564Z,75.75
2023-05-01T19:32:36.613Z,75.82
2023-05-01T19:38:56.584Z,76.22
2023-05-01T19:45:19.558Z,76.76
2023-05-01T19:51:39.635Z,77.57
2023-05-01T19:58:02.613Z,78.01
2023-05-01T20:04:22.593Z,78.04
2023-05-01T20:10:45.585Z,77.93
2023-05-01T20:26:35.622Z,78.06
2023-05-01T20:32:58.632Z,77.98
2023-05-01T20:39:18.601Z,78.28
2023-05-01T20:45:41.588Z,78.31
2023-05-01T20:52:01.586Z,79.14
2023-05-01T20:58:24.597Z,79.24
2023-05-01T21:04:44.593Z,79.2
2023-05-01T21:11:07.601Z,80.63
2023-05-01T21:17:27.575Z,80.15
2023-05-01T21:23:50.584Z,80.39
2023-05-01T21:30:10.595Z,81.1
2023-05-01T21:36:33.570Z,79.96
2023-05-01T21:42:53.624Z,79.82
2023-05-01T21:49:16.558Z,81.02
2023-05-01T21:55:36.560Z,81.18
2023-05-01T22:19:54.584Z,80.69
2023-05-01T22:26:14.587Z,80.51
2023-05-01T22:32:37.744Z,80.61
2023-05-01T22:38:57.610Z,81.15
2023-05-01T22:45:20.566Z,81.38
2023-05-01T22:51:40.593Z,81.45
2023-05-01T22:58:03.599Z,81.8
2023-05-01T23:04:23.625Z,81.9
2023-05-01T23:10:46.575Z,81.87
2023-05-01T23:17:06.643Z,82.4
2023-05-01T23:23:29.563Z,81.75
2023-05-01T23:29:49.611Z,82
2023-05-01T23:36:12.673Z,82.27
2023-05-01T23:42:32.624Z,82.56
2023-05-01T23:48:55.564Z,82.89
2023-05-01T23:55:15.625Z,83.2
